EW5291 Weather Reports


Display with metric or nautical units.
time (UTC)temp
F
wind
direction
speed
MPH
gust
MPH
rain 1hr
in
rain 24hr
in
rain mn
in
humidity
%
barometer
mb
20210119174523 42 224 0.0 6.0 0.00 0.00 0.00 53 1014.4
20210119174253 42 167 1.0 6.0 0.00 0.00 0.00 53 1013.2
20210119173352 42 160 2.0 9.0 0.00 0.00 0.00 54 1013.2
20210119172447 42 183 1.0 9.0 0.00 0.00 0.00 55 1013.4
20210119171549 42 189 1.0 5.0 0.00 0.00 0.00 53 1013.6
20210119171520 42 227 0.0 5.0 0.00 0.00 0.00 54 1014.8
20210119170647 42 169 0.0 3.0 0.00 0.00 0.00 54 1013.8
20210119165747 41 152 0.0 4.0 0.00 0.00 0.00 56 1014.0
20210119164848 41 152 1.0 5.0 0.00 0.00 0.00 56 1014.1
20210119164510 40 280 1.0 5.0 0.00 0.00 0.00 55 1015.4
20210119163947 41 350 0.0 1.0 0.00 0.00 0.00 56 1014.2
20210119163047 41 167 0.0 2.0 0.00 0.00 0.00 56 1014.3
20210119162147 40 185 1.0 3.0 0.00 0.00 0.00 57 1014.3
20210119161250 41 165 1.0 3.0 0.00 0.00 0.00 57 1014.4
20210119160348 40 155 1.0 9.0 0.00 0.00 0.00 58 1014.6
20210119155447 40 225 0.0 1.0 0.00 0.00 0.00 58 1014.8
20210119154547 39 160 1.0 2.0 0.00 0.00 0.00 59 1014.9
20210119154509 39 240 0.0 2.0 0.00 0.00 0.00 59 1016.2
20210119153647 39 179 0.0 2.0 0.00 0.00 0.00 61 1015.0
20210119152747 38 190 0.0 2.0 0.00 0.00 0.00 63 1015.1
20210119151847 37 170 1.0 3.0 0.00 0.00 0.00 64 1015.2
20210119151510 36 165 1.0 4.0 0.00 0.00 0.00 63 1016.5
20210119150947 37 130 0.0 3.0 0.00 0.00 0.00 65 1015.3
20210119150050 36 135 0.0 3.0 0.00 0.00 0.00 66 1015.3
20210119145147 36 161 0.0 2.0 0.00 0.00 0.00 68 1015.3
20210119144511 35 141 0.0 3.0 0.00 0.00 0.00 68 1016.7
20210119144248 35 181 0.0 3.0 0.00 0.00 0.00 69 1015.5
20210119143348 35 50 0.0 2.0 0.00 0.00 0.00 70 1015.5
20210119142448 34 311 0.0 1.0 0.00 0.00 0.00 72 1015.4
20210119141551 33 245 0.0 1.0 0.00 0.00 0.00 74 1015.4
20210119141521 33 259 0.0 1.0 0.00 0.00 0.00 74 1016.6
20210119140648 32 0 0.0 0.0 0.00 0.00 0.00 77 1015.3
20210119135748 31 178 0.0 1.0 0.00 0.00 0.00 79 1015.3
20210119134848 30 0 0.0 0.0 0.00 0.00 0.00 81 1015.2
20210119134526 30 179 0.0 1.0 0.00 0.00 0.00 81 1016.5
20210119133947 30 217 0.0 1.0 0.00 0.00 0.00 83 1015.2
20210119133051 28 0 0.0 0.0 0.00 0.00 0.00 84 1015.1
20210119132148 28 93 0.0 1.0 0.00 0.00 0.00 84 1015.0
20210119131519 26 61 0.0 1.0 0.00 0.00 0.00 85 1016.3
20210119131248 26 0 0.0 0.0 0.00 0.00 0.00 85 1015.0
20210119130347 26 0 0.0 0.0 0.00 0.00 0.00 85 1015.0
20210119125448 25 0 0.0 0.0 0.00 0.00 0.00 85 1014.9
20210119124547 24 0 0.0 0.0 0.00 0.00 0.00 85 1014.8
20210119124517 24 89 0.0 0.0 0.00 0.00 0.00 85 1016.1
20210119123649 24 0 0.0 0.0 0.00 0.00 0.00 85 1014.7
20210119122826 24 0 0.0 0.0 0.00 0.00 0.00 86 1014.6
20210119121849 23 0 0.0 0.0 0.00 0.00 0.00 86 1014.5
20210119121521 22 89 0.0 0.0 0.00 0.00 0.00 85 1015.7
20210119120952 23 0 0.0 0.0 0.00 0.00 0.00 85 1014.3
20210119120119 22 0 0.0 0.0 0.00 0.00 0.00 85 1014.1
20210119115147 22 0 0.0 0.0 0.00 0.00 0.00 84 1014.1
20210119114528 22 89 0.0 0.0 0.00 0.00 0.00 84 1015.4
20210119114248 23 0 0.0 0.0 0.00 0.00 0.00 84 1014.0
20210119113356 23 0 0.0 0.0 0.00 0.00 0.00 84 1014.0
20210119112453 23 0 0.0 0.0 0.00 0.00 0.00 83 1013.9
20210119111548 23 0 0.0 0.0 0.00 0.00 0.00 83 1013.7
20210119111527 23 89 0.0 0.0 0.00 0.00 0.00 83 1015.0
20210119110647 23 0 0.0 0.0 0.00 0.00 0.00 82 1013.6
20210119110022 23 89 0.0 0.0 0.00 0.00 0.00 83 1014.8
20210119105749 24 0 0.0 0.0 0.00 0.00 0.00 83 1013.5
20210119104847 23 0 0.0 0.0 0.00 0.00 0.00 82 1013.4
20210119103948 23 0 0.0 0.0 0.00 0.00 0.00 81 1013.4
20210119103052 24 0 0.0 0.0 0.00 0.00 0.00 81 1013.3
20210119103020 23 89 0.0 0.0 0.00 0.00 0.00 81 1014.5
20210119102149 24 0 0.0 0.0 0.00 0.00 0.00 81 1013.2
20210119101249 24 0 0.0 0.0 0.00 0.00 0.00 82 1013.0
20210119100357 24 0 0.0 0.0 0.00 0.00 0.00 80 1013.0
20210119100020 23 89 0.0 0.0 0.00 0.00 0.00 79 1014.2
20210119095448 24 0 0.0 0.0 0.00 0.00 0.00 80 1012.9
20210119094548 25 0 0.0 0.0 0.00 0.00 0.00 80 1012.7
20210119093650 25 0 0.0 0.0 0.00 0.00 0.00 81 1012.6
20210119093020 24 89 0.0 0.0 0.00 0.00 0.00 79 1013.8
20210119092747 24 0 0.0 0.0 0.00 0.00 0.00 78 1012.6
20210119091850 24 0 0.0 0.0 0.00 0.00 0.00 78 1012.6
20210119090950 25 0 0.0 0.0 0.00 0.00 0.00 77 1012.5
20210119090109 26 0 0.0 0.0 0.00 0.00 0.00 77 1012.5
20210119090028 25 89 0.0 0.0 0.00 0.00 0.00 77 1013.6
20210119085147 26 90 0.0 1.0 0.00 0.00 0.00 77 1012.5
20210119084251 26 0 0.0 0.0 0.00 0.00 0.00 75 1012.4
20210119083348 26 0 0.0 0.0 0.00 0.00 0.00 75 1012.4
20210119083022 26 90 0.0 0.0 0.00 0.00 0.00 75 1013.5
20210119082447 27 90 0.0 1.0 0.00 0.00 0.00 76 1012.4
20210119081547 27 90 0.0 1.0 0.00 0.00 0.00 76 1012.3
20210119080650 26 0 0.0 0.0 0.00 0.00 0.00 76 1012.3
20210119080023 26 70 0.0 0.0 0.00 0.00 0.00 75 1013.4
20210119075748 27 0 0.0 0.0 0.00 0.00 0.00 75 1012.2
20210119074848 27 0 0.0 0.0 0.00 0.00 0.00 76 1012.1
20210119073947 27 0 0.0 0.0 0.00 0.00 0.00 75 1012.2
20210119073052 27 0 0.0 0.0 0.00 0.00 0.00 72 1012.1
20210119073020 26 70 0.0 0.0 0.00 0.00 0.00 72 1013.3
20210119072152 27 0 0.0 0.0 0.00 0.00 0.00 72 1012.2
20210119071252 27 138 0.0 1.0 0.00 0.00 0.00 72 1012.1
20210119070356 28 138 0.0 1.0 0.00 0.00 0.00 70 1012.0
20210119070027 27 117 0.0 0.0 0.00 0.00 0.00 71 1013.2
20210119065453 28 117 0.0 1.0 0.00 0.00 0.00 69 1012.0
20210119064549 28 112 0.0 1.0 0.00 0.00 0.00 68 1011.8
20210119063650 28 148 0.0 4.0 0.00 0.00 0.00 69 1011.8
20210119063025 28 332 0.0 4.0 0.00 0.00 0.00 68 1012.8
20210119062747 28 158 0.0 1.0 0.00 0.00 0.00 68 1011.7
20210119061848 28 0 0.0 0.0 0.00 0.00 0.00 68 1011.6
20210119060947 28 152 0.0 1.0 0.00 0.00 0.00 68 1011.4
20210119060054 28 135 0.0 1.0 0.00 0.00 0.00 69 1011.2
20210119060011 27 122 0.0 1.0 0.00 0.00 0.00 70 1012.3
20210119055148 28 169 0.0 1.0 0.00 0.00 0.00 68 1011.0
20210119054248 28 125 0.0 1.0 0.00 0.00 0.00 68 1010.8
20210119053348 28 189 0.0 1.0 0.00 0.00 0.00 68 1010.7
20210119053015 28 248 0.0 1.0 0.00 0.00 0.00 69 1011.8
20210119052448 28 197 0.0 2.0 0.00 0.00 0.00 71 1010.5
20210119051550 28 0 0.0 0.0 0.00 0.00 0.00 72 1010.5
20210119050647 28 0 0.0 0.0 0.00 0.00 0.00 70 1010.5
20210119045750 28 0 0.0 0.0 0.00 0.00 0.00 69 1010.5
20210119044847 28 0 0.0 0.0 0.00 0.00 0.00 69 1010.3
20210119044513 28 205 0.0 0.0 0.00 0.00 0.00 70 1011.3
20210119043949 28 140 0.0 1.0 0.00 0.00 0.00 69 1010.2
20210119043050 28 140 0.0 1.0 0.00 0.00 0.00 67 1010.1
20210119042155 29 0 0.0 0.0 0.00 0.00 0.00 69 1009.9
20210119041522 29 115 0.0 1.0 0.00 0.00 0.00 68 1011.0
20210119041250 29 111 0.0 1.0 0.00 0.00 0.00 68 1009.9
20210119040348 29 111 0.0 2.0 0.00 0.00 0.00 65 1009.7
20210119035451 30 177 0.0 1.0 0.00 0.00 0.00 64 1009.7
20210119034600 30 73 0.0 4.0 0.00 0.00 0.00 63 1009.5
20210119034518 30 148 0.0 4.0 0.00 0.00 0.00 63 1010.6
20210119033648 30 188 0.0 1.0 0.00 0.00 0.00 63 1009.5
20210119032749 31 127 0.0 3.0 0.00 0.00 0.00 63 1009.5
20210119031850 30 165 0.0 3.0 0.00 0.00 0.00 63 1009.6
20210119031528 30 213 0.0 3.0 0.00 0.00 0.00 63 1010.6
20210119030953 30 164 0.0 3.0 0.00 0.00 0.00 64 1009.5
20210119030054 30 194 0.0 3.0 0.00 0.00 0.00 65 1009.4
20210119025152 30 202 0.0 1.0 0.00 0.00 0.00 65 1009.3
20210119024516 30 229 0.0 1.0 0.00 0.00 0.00 68 1010.3
20210119024249 30 265 0.0 1.0 0.00 0.00 0.00 67 1009.1
20210119023347 30 69 0.0 4.0 0.00 0.00 0.00 68 1009.1
20210119022448 31 266 0.0 1.0 0.00 0.00 0.00 69 1009.0
20210119021549 31 238 0.0 1.0 0.00 0.00 0.00 68 1008.9
20210119021512 30 257 0.0 1.0 0.00 0.00 0.00 69 1010.1
20210119020648 30 184 0.0 1.0 0.00 0.00 0.00 68 1008.9
20210119015750 31 120 0.0 1.0 0.00 0.00 0.00 70 1008.8
20210119014848 31 117 0.0 1.0 0.00 0.00 0.00 69 1008.7
20210119013949 31 157 0.0 3.0 0.00 0.00 0.00 67 1008.6
20210119013052 32 218 0.0 1.0 0.00 0.00 0.00 66 1008.5
20210119013020 31 274 0.0 1.0 0.00 0.00 0.00 66 1009.6
20210119012148 32 225 0.0 1.0 0.00 0.00 0.00 65 1008.3
20210119011247 33 169 1.0 6.0 0.00 0.00 0.00 64 1008.2
20210119010347 33 188 0.0 2.0 0.00 0.00 0.00 64 1008.2
20210119010035 32 217 0.0 2.0 0.00 0.00 0.00 65 1009.2
20210119005447 33 348 0.0 6.0 0.00 0.00 0.00 63 1008.1
20210119004548 34 126 0.0 5.0 0.00 0.00 0.00 63 1007.9
20210119003648 34 179 0.0 4.0 0.00 0.00 0.00 63 1007.8
20210119003029 33 253 0.0 4.0 0.00 0.00 0.00 65 1008.9
20210119002750 34 132 0.0 6.0 0.00 0.00 0.00 64 1007.9
20210119001849 34 71 0.0 1.0 0.00 0.00 0.00 64 1007.5
20210119000948 35 183 0.0 4.0 0.00 0.00 0.00 63 1007.4
20210119000056 35 230 1.0 4.0 0.00 0.00 0.00 62 1007.2
20210119000035 35 243 0.0 4.0 0.00 0.00 0.00 62 1008.3
20210118235149 35 34 0.0 6.0 0.00 0.00 0.00 64 1007.0
20210118234248 36 288 0.0 2.0 0.00 0.00 0.00 66 1006.8
20210118233349 36 252 0.0 2.0 0.00 0.00 0.00 66 1006.8
20210118233018 36 236 0.0 2.0 0.00 0.00 0.00 67 1007.6
20210118232448 36 220 0.0 2.0 0.00 0.00 0.00 67 1006.6
20210118231549 37 203 1.0 6.0 0.00 0.00 0.00 66 1006.3
20210118230652 37 144 0.0 6.0 0.00 0.00 0.00 67 1006.4
20210118230025 37 266 0.0 1.0 0.00 0.00 0.00 66 1007.2
20210118225747 37 222 0.0 2.0 0.00 0.00 0.00 66 1006.2
20210118224849 37 251 0.0 3.0 0.00 0.00 0.00 67 1006.1
20210118223950 38 272 0.0 3.0 0.00 0.00 0.00 65 1005.9
20210118223048 38 182 0.0 1.0 0.00 0.00 0.00 65 1005.8
20210118223022 37 231 0.0 1.0 0.00 0.00 0.00 65 1006.8
20210118222151 38 254 0.0 1.0 0.00 0.00 0.00 65 1005.6
20210118221247 38 188 0.0 3.0 0.00 0.00 0.00 65 1005.4
20210118220348 38 329 0.0 2.0 0.00 0.00 0.00 64 1005.4
20210118220026 38 229 0.0 1.0 0.00 0.00 0.00 64 1006.3
20210118215449 39 76 0.0 1.0 0.00 0.00 0.00 64 1005.2
20210118214549 39 231 0.0 3.0 0.00 0.00 0.00 63 1005.0
20210118213648 40 133 0.0 6.0 0.00 0.00 0.00 63 1004.8
20210118213010 39 221 0.0 3.0 0.00 0.00 0.00 65 1005.7
20210118212748 40 151 0.0 3.0 0.00 0.00 0.00 64 1004.7
20210118211850 40 72 0.0 2.0 0.00 0.00 0.00 64 1004.6
20210118210948 41 145 0.0 3.0 0.00 0.00 0.00 63 1004.3
20210118210048 41 50 0.0 4.0 0.00 0.00 0.00 62 1004.1
20210118210010 41 326 0.0 4.0 0.00 0.00 0.00 62 1005.0
20210118205149 42 0 0.0 0.0 0.00 0.00 0.00 64 1003.9
20210118204248 42 214 1.0 4.0 0.00 0.00 0.00 61 1003.7
20210118203348 42 223 0.0 4.0 0.00 0.00 0.00 60 1003.5
20210118203026 42 219 0.0 4.0 0.00 0.00 0.00 60 1004.4
20210118202450 42 252 0.0 3.0 0.00 0.00 0.00 61 1003.3
20210118201549 43 249 0.0 3.0 0.00 0.00 0.00 62 1003.2
20210118200649 43 114 0.0 5.0 0.00 0.00 0.00 63 1003.0
20210118200026 42 62 0.0 6.0 0.00 0.00 0.00 64 1004.0
20210118195748 43 144 1.0 6.0 0.00 0.00 0.00 65 1003.0
20210118194848 43 79 1.0 6.0 0.00 0.00 0.00 66 1002.9
20210118193950 43 61 0.0 5.0 0.00 0.00 0.00 67 1002.9
20210118193048 43 354 0.0 3.0 0.00 0.00 0.00 67 1002.7
20210118193030 42 20 0.0 3.0 0.00 0.00 0.00 67 1003.7
20210118192149 43 170 0.0 3.0 0.00 0.00 0.00 68 1002.6
20210118191249 42 146 0.0 4.0 0.00 0.00 0.00 69 1002.5
20210118190351 42 177 0.0 4.0 0.00 0.00 0.00 66 1002.6
20210118190031 42 312 0.0 7.0 0.00 0.00 0.00 64 1003.5
20210118185448 43 329 0.0 6.0 0.00 0.00 0.00 61 1002.4
20210118184549 45 354 0.0 3.0 0.00 0.00 0.00 54 1002.0
20210118183648 46 307 0.0 2.0 0.00 0.00 0.00 50 1001.8
20210118183021 46 345 0.0 4.0 0.00 0.00 0.00 48 1002.7
20210118182748 47 216 1.0 4.0 0.00 0.00 0.00 46 1001.6
20210118181851 47 203 0.0 2.0 0.00 0.00 0.00 46 1001.6
20210118180948 48 315 1.0 4.0 0.00 0.00 0.00 47 1001.6
20210118180114 47 198 1.0 6.0 0.00 0.00 0.00 46 1001.7
20210118180048 47 284 1.0 6.0 0.00 0.00 0.00 47 1002.7
20210118175148 47 187 1.0 5.0 0.00 0.00 0.00 48 1001.7